Pagrindinis puslapis
METAR-TAF:

METAR-TAF

Oro uostai :

Uagadugu oro uostas

Uagadugu, Burkina Fasas

platuma: 12-21N, ilguma: 001-31W, Aukštis: 316 m

Dabartinis oras

Ataskaita buvo paskelbta 48 minutes, ne 01:00 UTC
Vėjas 1 kt iš Šiaurės Rytų
Temperatūra 28°C
Drėgmė 27%
Slėgis 1010 hPa
Matomumas 10 km arba daugiau
nėra debesų žemiau 1500 m ir nėra kamuolinių lietaus debesų

METAR: DFFD 280100Z 04001KT CAVOK 28/07 Q1010 NOSIG

Laikas: 01:48 (01:48 UTC)

Prognozė

Ataskaita buvo paskelbta 2 valandos ir 48 minutes, ne 23:00 UTC
Prognozė galioja nuo 28 metu 00 UTC su 29 metu 06 UTC
Vėjas 8 kt nuo kintamojo kryptimis
Matomumas: 8000 m
Laikinai
nuo 28 metu 06 UTC su 28 metu 10 UTC
Matomumas: 4000 m
migla,

TAF: DFFD 272300Z 2800/2906 VRB08KT 8000 NSC TEMPO 2806/2810 4000 HZ

Orai ataskaitas ir orų prognozės (METAR, TAF).

turimą stotys yra geltonos ir raudonos taškus žemėlapyje.

Perkelti pele per norėdami pamatyti stoties vardą.

Tada spustelėkite, norėdami matyti oro stebėjimo ir prognozės.

Norėdami pakeisti žemėlapį: spustelėkite ant žalios mygtukų su juodo kryžiaus žemyn,; žalią mygtuką su brūkšneliu, jei norite nutolinti; arba žalių rodyklių gretimoms žemėlapius.


METAR-TAF: